Time;durP1;ratioP1;P1;durP2;ratioP2;P2;SDS_P1;SDS_P2;PMS_P1;PMS_P2;Temp;Humidity;BMP_temperature;BMP_pressure;BME280_temperature;BME280_humidity;BME280_pressure;Samples;Min_cycle;Max_cycle;Signal;HPM_P1;HPM_P2
2023/12/29 00:00:41;;;;;;;33.90;19.00;;;;;;;8.75;61.32;98984.09;232315;204;136672;-58
2023/12/29 00:06:06;;;;;;;33.10;19.20;;;;;;;8.66;61.75;99006.17;232048;204;150036;-57
2023/12/29 00:11:19;;;;;;;31.00;19.60;;;;;;;8.66;61.98;99008.82;232235;204;137362;-58
2023/12/29 00:16:22;;;;;;;29.00;18.70;;;;;;;8.70;62.05;99001.01;232255;196;137570;-57
2023/12/29 00:21:25;;;;;;;35.00;19.80;;;;;;;8.68;62.13;98989.79;231815;203;149836;-55
2023/12/29 00:26:29;;;;;;;31.90;19.20;;;;;;;8.65;62.22;98988.37;232095;204;137774;-57
2023/12/29 00:31:32;;;;;;;36.30;21.00;;;;;;;8.66;62.53;98989.52;232233;204;137812;-58
2023/12/29 00:36:36;;;;;;;35.70;20.00;;;;;;;8.68;62.74;98980.36;231599;204;149478;-57
2023/12/29 00:41:40;;;;;;;33.10;19.50;;;;;;;8.66;63.14;98975.05;232619;203;137622;-58
2023/12/29 00:46:43;;;;;;;34.30;19.00;;;;;;;8.63;63.38;98975.04;232115;204;136816;-57
2023/12/29 00:51:47;;;;;;;30.90;17.90;;;;;;;8.64;63.58;98972.85;232170;204;149544;-58
2023/12/29 00:56:51;;;;;;;30.40;18.10;;;;;;;8.66;63.61;98967.05;232478;204;139674;-57
2023/12/29 01:01:55;;;;;;;30.00;18.60;;;;;;;8.69;63.82;98962.13;232533;201;137439;-58
2023/12/29 01:06:58;;;;;;;30.90;18.30;;;;;;;8.73;63.95;98956.05;232459;204;149526;-57
2023/12/29 01:12:01;;;;;;;28.20;17.70;;;;;;;8.77;64.00;98957.27;232036;200;138239;-59
2023/12/29 01:17:04;;;;;;;34.30;18.10;;;;;;;8.81;64.06;98960.77;232692;204;137709;-58
2023/12/29 01:22:09;;;;;;;30.10;18.00;;;;;;;8.81;64.01;98954.57;231967;204;149345;-58
2023/12/29 01:27:12;;;;;;;29.10;18.20;;;;;;;8.84;64.08;98954.05;232341;203;136640;-58
2023/12/29 01:32:15;;;;;;;30.00;18.20;;;;;;;8.84;64.18;98954.23;232470;196;137424;-57
2023/12/29 01:37:19;;;;;;;32.90;17.80;;;;;;;8.86;64.17;98936.41;232504;201;149599;-57
2023/12/29 01:42:22;;;;;;;27.70;17.50;;;;;;;8.80;64.14;98930.40;232169;204;136817;-58
2023/12/29 01:47:26;;;;;;;31.40;18.10;;;;;;;8.72;64.19;98926.92;232565;197;137616;-58
2023/12/29 01:52:30;;;;;;;30.20;19.30;;;;;;;8.68;64.36;98930.69;232535;196;149679;-58
2023/12/29 01:57:35;;;;;;;30.20;18.70;;;;;;;8.67;64.42;98925.84;232358;203;136486;-58
2023/12/29 02:02:39;;;;;;;28.70;18.20;;;;;;;8.61;64.52;98916.24;232113;203;138047;-57
2023/12/29 02:07:43;;;;;;;29.80;18.80;;;;;;;8.55;64.80;98912.00;232010;204;149523;-56
2023/12/29 02:12:50;;;;;;;32.00;18.00;;;;;;;8.55;65.00;98906.48;232186;204;137492;-58
2023/12/29 02:18:02;;;;;;;30.60;17.80;;;;;;;8.56;65.31;98893.52;232079;201;136753;-57
2023/12/29 02:23:06;;;;;;;29.90;17.00;;;;;;;8.60;65.45;98882.34;231998;200;150268;-58
2023/12/29 02:28:23;;;;;;;29.90;18.90;;;;;;;8.64;65.43;98880.70;232417;203;137271;-58
2023/12/29 02:33:28;;;;;;;27.30;16.60;;;;;;;8.61;65.38;98883.54;232460;201;137373;-58
2023/12/29 02:38:32;;;;;;;29.60;16.70;;;;;;;8.66;65.44;98873.33;232506;199;149688;-58
2023/12/29 02:43:35;;;;;;;29.50;16.90;;;;;;;8.70;65.36;98873.64;232447;200;141470;-58
2023/12/29 02:48:39;;;;;;;29.10;17.40;;;;;;;8.72;65.28;98876.16;232231;200;137727;-58
2023/12/29 02:53:42;;;;;;;26.20;16.20;;;;;;;8.79;65.22;98865.38;232514;201;149698;-58
2023/12/29 02:58:47;;;;;;;27.00;16.90;;;;;;;8.83;64.90;98860.71;232456;204;140869;-58
2023/12/29 03:03:50;;;;;;;27.00;17.70;;;;;;;8.81;64.89;98862.57;232363;200;137474;-58
2023/12/29 03:08:54;;;;;;;27.10;17.80;;;;;;;8.78;64.75;98856.22;232464;204;149574;-59
2023/12/29 03:13:57;;;;;;;27.70;17.50;;;;;;;8.68;64.44;98858.92;232010;204;137538;-58
2023/12/29 03:19:00;;;;;;;26.70;17.80;;;;;;;8.51;64.52;98858.80;231013;204;140248;-60
2023/12/29 03:24:04;;;;;;;27.30;17.00;;;;;;;8.36;64.79;98855.03;232344;203;150328;-58
2023/12/29 03:29:07;;;;;;;28.10;17.90;;;;;;;8.21;65.25;98842.59;232177;203;136844;-57
2023/12/29 03:34:11;;;;;;;28.60;17.60;;;;;;;8.22;65.84;98839.52;231786;204;140438;-58
2023/12/29 03:39:14;;;;;;;30.10;18.00;;;;;;;8.16;65.61;98833.67;231718;201;150223;-58
2023/12/29 03:44:17;;;;;;;28.40;16.80;;;;;;;7.99;65.68;98826.84;232322;200;139376;-58
2023/12/29 03:49:21;;;;;;;25.80;16.40;;;;;;;7.84;65.84;98825.54;232480;203;140597;-58
2023/12/29 03:54:25;;;;;;;26.80;16.30;;;;;;;7.69;66.11;98819.31;232483;204;152100;-58
2023/12/29 03:59:28;;;;;;;27.30;17.10;;;;;;;7.55;66.16;98825.52;232584;200;137419;-57
2023/12/29 04:04:31;;;;;;;29.10;16.80;;;;;;;7.40;66.46;98821.91;232363;204;137199;-57
2023/12/29 04:09:36;;;;;;;27.60;16.30;;;;;;;7.27;66.78;98822.75;232354;197;153180;-58
2023/12/29 04:14:39;;;;;;;25.70;15.80;;;;;;;7.21;67.10;98823.40;232206;197;141107;-57
2023/12/29 04:19:42;;;;;;;26.80;16.00;;;;;;;7.10;67.21;98816.25;232207;204;140356;-58
2023/12/29 04:24:46;;;;;;;23.70;16.20;;;;;;;7.10;67.49;98814.63;232397;203;151876;-58
2023/12/29 04:29:49;;;;;;;32.10;16.80;;;;;;;7.08;67.57;98814.88;231853;200;136950;-57
2023/12/29 04:34:52;;;;;;;28.20;17.80;;;;;;;7.06;67.70;98811.11;232386;196;137566;-58
2023/12/29 04:39:56;;;;;;;28.70;18.20;;;;;;;7.04;67.79;98811.63;232006;201;152055;-58
2023/12/29 04:44:59;;;;;;;27.50;17.90;;;;;;;6.94;67.77;98811.39;232501;200;140601;-58
2023/12/29 04:50:03;;;;;;;27.00;16.80;;;;;;;6.88;67.97;98802.88;232431;204;137276;-58
2023/12/29 04:55:07;;;;;;;24.90;15.90;;;;;;;6.77;68.28;98802.22;231977;203;151108;-59
2023/12/29 05:00:11;;;;;;;25.60;16.20;;;;;;;6.71;68.69;98799.13;231371;196;140211;-60
2023/12/29 05:05:14;;;;;;;25.50;16.10;;;;;;;6.74;69.15;98799.89;232246;196;137443;-60
2023/12/29 05:10:18;;;;;;;26.20;15.30;;;;;;;6.80;69.66;98805.43;231821;204;151574;-60
2023/12/29 05:15:21;;;;;;;25.70;14.90;;;;;;;6.97;70.81;98800.14;232281;203;136954;-60
2023/12/29 05:20:24;;;;;;;22.60;14.10;;;;;;;7.20;71.22;98798.42;232438;200;138112;-60
2023/12/29 05:25:28;;;;;;;20.80;14.50;;;;;;;7.50;71.11;98797.39;231982;204;152794;-60
2023/12/29 05:30:32;;;;;;;22.70;15.20;;;;;;;7.80;70.57;98789.38;232197;203;141222;-60
2023/12/29 05:35:35;;;;;;;26.50;15.60;;;;;;;8.00;69.85;98790.39;232610;203;137694;-60
2023/12/29 05:40:39;;;;;;;21.40;15.30;;;;;;;8.06;69.31;98785.30;231964;204;152129;-60
2023/12/29 05:45:42;;;;;;;24.80;15.70;;;;;;;8.04;69.09;98780.78;232188;197;140785;-60
2023/12/29 05:50:45;;;;;;;27.60;17.50;;;;;;;8.03;69.15;98787.73;232028;200;140796;-59
2023/12/29 05:55:49;;;;;;;27.90;16.20;;;;;;;8.01;69.29;98803.08;232458;204;151935;-60
2023/12/29 06:00:52;;;;;;;29.00;16.00;;;;;;;8.06;69.41;98812.52;232501;204;137563;-59
2023/12/29 06:05:55;;;;;;;24.40;15.90;;;;;;;8.08;69.36;98806.03;232269;203;138118;-59
2023/12/29 06:10:58;;;;;;;22.90;14.70;;;;;;;8.09;69.42;98802.09;232496;196;151433;-60
2023/12/29 06:16:02;;;;;;;19.60;14.10;;;;;;;8.13;69.34;98798.36;232189;203;140100;-57
2023/12/29 06:21:05;;;;;;;20.90;14.70;;;;;;;8.12;69.16;98796.09;232539;203;140999;-57
2023/12/29 06:26:19;;;;;;;21.80;14.80;;;;;;;8.16;68.94;98795.66;232371;204;154296;-56
2023/12/29 06:31:23;;;;;;;25.70;16.40;;;;;;;8.20;68.79;98791.20;232264;204;138287;-56
2023/12/29 06:36:26;;;;;;;25.90;15.50;;;;;;;8.26;68.61;98792.09;232361;203;141820;-57
2023/12/29 06:41:29;;;;;;;22.90;15.40;;;;;;;8.32;68.48;98790.58;232192;204;151437;-57
2023/12/29 06:46:32;;;;;;;16.20;11.40;;;;;;;8.32;68.52;98792.33;232441;204;140593;-57
2023/12/29 06:51:35;;;;;;;16.70;10.30;;;;;;;8.46;68.18;98795.98;232320;197;137475;-56
2023/12/29 06:56:39;;;;;;;14.10;9.80;;;;;;;8.54;67.79;98799.05;232485;200;152074;-58
2023/12/29 07:01:42;;;;;;;12.30;8.70;;;;;;;8.63;67.55;98803.66;231584;203;136869;-57
2023/12/29 07:06:45;;;;;;;14.10;9.30;;;;;;;8.72;67.12;98811.95;232220;200;139346;-60
2023/12/29 07:11:49;;;;;;;14.00;9.40;;;;;;;8.85;66.67;98812.48;232236;204;151684;-58
2023/12/29 07:16:53;;;;;;;13.40;8.80;;;;;;;8.95;66.15;98798.59;232055;203;137165;-58
2023/12/29 07:21:56;;;;;;;106.30;80.50;;;;;;;9.04;65.77;98782.83;232375;201;137382;-59
2023/12/29 07:27:00;;;;;;;30.20;19.40;;;;;;;9.25;65.41;98786.02;232439;204;151460;-58
2023/12/29 07:32:03;;;;;;;14.60;9.90;;;;;;;9.45;64.63;98791.02;232436;203;140782;-58
2023/12/29 07:37:07;;;;;;;14.30;8.60;;;;;;;9.60;63.96;98787.02;232299;201;137609;-57
2023/12/29 07:42:10;;;;;;;56.00;37.50;;;;;;;9.74;63.86;98779.45;232212;201;154580;-57
2023/12/29 07:47:14;;;;;;;11.80;8.30;;;;;;;9.83;63.92;98788.45;232313;203;139026;-57
2023/12/29 07:52:17;;;;;;;8.70;6.20;;;;;;;9.95;63.78;98792.61;232415;201;140393;-58
2023/12/29 07:57:20;;;;;;;8.90;5.70;;;;;;;10.06;63.64;98780.27;231949;200;152005;-57
2023/12/29 08:02:23;;;;;;;7.40;4.70;;;;;;;10.15;63.56;98782.67;231491;200;137631;-58
2023/12/29 08:07:26;;;;;;;8.10;4.80;;;;;;;10.27;63.50;98793.46;232367;203;139623;-57
2023/12/29 08:12:30;;;;;;;7.00;4.90;;;;;;;10.38;63.37;98797.54;232370;200;152569;-56
2023/12/29 08:17:33;;;;;;;7.70;4.40;;;;;;;10.47;63.16;98785.41;232505;200;137987;-57
2023/12/29 08:22:36;;;;;;;8.20;4.40;;;;;;;10.56;63.18;98785.17;232432;204;138348;-58
2023/12/29 08:27:41;;;;;;;7.00;4.10;;;;;;;10.66;63.20;98784.17;232340;200;151750;-58
2023/12/29 08:32:44;;;;;;;33.70;20.90;;;;;;;10.77;63.34;98783.23;232046;204;138786;-57
2023/12/29 08:37:47;;;;;;;234.90;153.50;;;;;;;10.96;63.29;98785.89;232106;196;141315;-57
2023/12/29 08:42:50;;;;;;;12.20;7.80;;;;;;;11.11;62.79;98792.96;232097;204;151513;-56
2023/12/29 08:47:54;;;;;;;10.60;4.10;;;;;;;11.19;62.32;98796.23;232538;204;137095;-57
2023/12/29 08:52:57;;;;;;;5.70;3.30;;;;;;;11.21;62.12;98802.45;231921;200;137448;-57
2023/12/29 08:58:01;;;;;;;5.20;3.10;;;;;;;11.31;61.97;98807.29;232337;204;151781;-58
2023/12/29 09:03:05;;;;;;;7.00;3.00;;;;;;;11.45;61.50;98808.27;231839;200;136897;-58
2023/12/29 09:08:08;;;;;;;5.70;2.60;;;;;;;11.60;60.83;98810.95;231950;203;137184;-57
2023/12/29 09:13:11;;;;;;;5.50;2.50;;;;;;;11.68;60.40;98799.01;232296;203;151519;-56
2023/12/29 09:18:15;;;;;;;7.50;3.00;;;;;;;11.79;59.80;98803.43;231501;201;140594;-56
2023/12/29 09:23:18;;;;;;;5.10;2.50;;;;;;;11.88;59.12;98802.08;232064;204;136804;-56
2023/12/29 09:28:21;;;;;;;5.80;2.40;;;;;;;11.97;58.72;98792.75;232025;204;151992;-58
2023/12/29 09:33:24;;;;;;;5.80;2.20;;;;;;;11.99;57.76;98784.39;232202;197;136965;-58
2023/12/29 09:38:28;;;;;;;4.20;2.10;;;;;;;12.01;57.15;98785.64;232288;197;137137;-59
2023/12/29 09:43:32;;;;;;;5.20;1.90;;;;;;;12.06;56.86;98769.83;232106;201;151513;-52
2023/12/29 09:48:36;;;;;;;4.90;2.60;;;;;;;12.14;56.53;98766.77;232229;198;137761;-60
2023/12/29 09:53:41;;;;;;;4.70;2.10;;;;;;;12.22;55.82;98760.14;232459;204;137434;-60
2023/12/29 09:58:47;;;;;;;3.40;1.50;;;;;;;12.27;55.74;98751.60;232233;204;151485;-61
2023/12/29 10:03:50;;;;;;;5.50;1.70;;;;;;;12.31;55.44;98747.89;232246;200;136923;-61
2023/12/29 10:08:56;;;;;;;3.10;1.60;;;;;;;12.34;54.99;98745.91;231892;200;140609;-59
2023/12/29 10:14:09;;;;;;;50.70;36.90;;;;;;;12.43;54.79;98738.49;232292;200;152111;-59
2023/12/29 10:19:32;;;;;;;8.10;2.90;;;;;;;12.52;54.31;98733.52;232367;196;137888;-61
2023/12/29 10:24:36;;;;;;;2.70;1.40;;;;;;;12.55;53.72;98729.17;232298;203;137017;-60
2023/12/29 10:29:40;;;;;;;3.40;1.80;;;;;;;12.59;53.94;98724.84;232324;197;151300;-61
2023/12/29 10:34:43;;;;;;;2.20;1.40;;;;;;;12.65;53.76;98723.54;232194;197;139852;-61
2023/12/29 10:39:56;;;;;;;7.40;1.40;;;;;;;12.66;53.94;98719.30;232307;201;137255;-61
2023/12/29 10:45:09;;;;;;;5.00;1.20;;;;;;;12.71;53.71;98709.52;232090;197;152098;-56
2023/12/29 10:50:13;;;;;;;2.70;1.50;;;;;;;12.74;53.55;98705.88;232171;204;141160;-55
2023/12/29 10:55:16;;;;;;;4.20;1.40;;;;;;;12.77;53.15;98705.10;232376;196;141341;-55
2023/12/29 11:00:29;;;;;;;12.70;2.00;;;;;;;12.83;52.94;98693.41;232137;198;234991;-56
2023/12/29 11:05:33;;;;;;;2.50;1.30;;;;;;;12.90;52.87;98690.77;232320;204;138004;-54
2023/12/29 11:10:37;;;;;;;3.10;1.40;;;;;;;12.95;52.48;98693.39;232279;203;137039;-57
2023/12/29 11:15:44;;;;;;;4.10;1.60;;;;;;;13.02;52.16;98680.73;232276;204;152173;-57
2023/12/29 11:20:47;;;;;;;1.60;1.10;;;;;;;13.07;51.83;98678.77;232171;204;137298;-57
2023/12/29 11:25:52;;;;;;;3.30;1.60;;;;;;;13.08;51.54;98686.02;232398;204;138876;-56
2023/12/29 11:30:55;;;;;;;3.80;1.60;;;;;;;13.08;51.37;98690.77;232270;204;275899;-57
2023/12/29 11:36:22;;;;;;;4.70;1.80;;;;;;;13.04;51.54;98690.20;232238;197;137517;-57
2023/12/29 11:42:05;;;;;;;4.10;1.90;;;;;;;13.00;51.88;98677.15;232549;204;136535;-57
2023/12/29 11:47:35;;;;;;;6.00;2.20;;;;;;;13.00;52.18;98675.06;231582;204;153662;-61
2023/12/29 11:52:39;;;;;;;6.90;1.90;;;;;;;13.01;52.04;98674.59;231989;201;140268;-62
2023/12/29 11:57:42;;;;;;;3.30;1.80;;;;;;;13.07;52.41;98675.92;232198;204;136992;-61
2023/12/29 12:02:48;;;;;;;2.10;1.60;;;;;;;13.08;52.29;98679.05;232211;204;154115;-61
2023/12/29 12:07:54;;;;;;;4.20;1.80;;;;;;;13.07;52.38;98681.29;232306;197;137990;-61
2023/12/29 12:12:58;;;;;;;6.10;1.90;;;;;;;13.10;52.47;98681.92;232211;200;136537;-61
2023/12/29 12:18:09;;;;;;;4.10;1.90;;;;;;;13.11;52.49;98685.58;232469;196;151725;-61
2023/12/29 12:23:20;;;;;;;4.30;2.10;;;;;;;13.09;52.35;98687.15;232444;197;139731;-61
2023/12/29 12:28:23;;;;;;;3.60;1.70;;;;;;;13.04;52.14;98679.93;232364;204;136491;-61
2023/12/29 12:33:28;;;;;;;3.10;1.90;;;;;;;12.97;52.45;98680.61;232363;201;152153;-60
2023/12/29 12:38:33;;;;;;;2.70;1.80;;;;;;;12.96;52.48;98674.25;232280;204;138163;-61
2023/12/29 12:43:44;;;;;;;7.50;1.80;;;;;;;12.93;52.49;98672.95;232378;204;137499;-59
2023/12/29 12:48:47;;;;;;;6.50;1.50;;;;;;;12.90;51.91;98672.63;232247;201;151912;-60
2023/12/29 12:53:52;;;;;;;3.70;1.90;;;;;;;12.83;50.98;98680.99;232224;201;270931;-61
2023/12/29 12:58:57;;;;;;;8.90;5.80;;;;;;;12.77;51.29;98677.66;231633;198;137181;-60
2023/12/29 13:04:00;;;;;;;6.20;1.80;;;;;;;12.79;50.83;98678.27;232222;197;151573;-61
2023/12/29 13:09:08;;;;;;;4.40;1.80;;;;;;;12.79;50.87;98667.05;232181;197;136436;-61
2023/12/29 13:14:22;;;;;;;4.30;1.60;;;;;;;12.82;50.73;98670.72;232280;200;137390;-61
2023/12/29 13:19:27;;;;;;;3.50;1.80;;;;;;;12.84;50.62;98670.77;232290;201;151507;-59
2023/12/29 13:24:31;;;;;;;2.90;1.70;;;;;;;12.84;50.36;98672.95;232293;204;138081;-60
2023/12/29 13:29:35;;;;;;;2.90;1.90;;;;;;;12.82;50.15;98673.10;232364;204;137097;-60
2023/12/29 13:35:16;;;;;;;5.10;2.00;;;;;;;12.84;50.13;98670.78;232043;197;151112;-58
2023/12/29 13:40:24;;;;;;;4.00;1.80;;;;;;;12.85;50.14;98661.48;232228;204;136785;-57
2023/12/29 13:45:29;;;;;;;3.90;2.10;;;;;;;12.80;50.07;98659.70;232137;197;137715;-56
2023/12/29 13:50:33;;;;;;;4.20;1.80;;;;;;;12.72;50.33;98662.42;232193;204;152262;-56
2023/12/29 13:55:36;;;;;;;6.80;2.40;;;;;;;12.69;50.39;98669.96;232178;201;137298;-56
2023/12/29 14:00:40;;;;;;;3.90;2.20;;;;;;;12.66;50.46;98666.64;232225;200;137616;-56
2023/12/29 14:06:00;;;;;;;3.90;2.40;;;;;;;12.66;50.62;98666.84;232317;204;151967;-57
2023/12/29 14:11:10;;;;;;;5.90;2.00;;;;;;;12.63;50.59;98680.94;232152;201;136478;-53
2023/12/29 14:16:14;;;;;;;3.40;2.20;;;;;;;12.50;50.77;98673.56;232156;197;137483;-57
2023/12/29 14:21:32;;;;;;;3.20;2.10;;;;;;;12.44;50.89;98677.00;232167;204;151311;-56
2023/12/29 14:26:46;;;;;;;5.80;2.80;;;;;;;12.42;50.89;98689.29;232217;204;140504;-58
2023/12/29 14:31:55;;;;;;;5.50;2.60;;;;;;;12.38;51.03;98697.73;232232;201;137548;-58
2023/12/29 14:37:01;;;;;;;3.60;2.40;;;;;;;12.33;51.13;98695.50;231614;204;152087;-57
2023/12/29 14:42:04;;;;;;;3.50;2.50;;;;;;;12.24;51.16;98693.97;231449;200;137420;-58
2023/12/29 14:47:07;;;;;;;4.50;2.60;;;;;;;12.17;51.29;98693.97;232031;204;137594;-59
2023/12/29 14:52:11;;;;;;;3.90;2.50;;;;;;;12.13;51.34;98701.41;232336;200;151851;-58
2023/12/29 14:57:14;;;;;;;4.40;2.70;;;;;;;12.06;51.39;98709.36;232260;204;138304;-61
2023/12/29 15:02:23;;;;;;;4.70;2.30;;;;;;;12.03;51.69;98712.66;232251;204;138551;-61
2023/12/29 15:07:30;;;;;;;4.60;2.70;;;;;;;12.00;51.73;98716.95;232220;204;151491;-60
2023/12/29 15:12:33;;;;;;;8.20;2.80;;;;;;;11.98;51.68;98716.75;232250;200;137652;-60
2023/12/29 15:17:37;;;;;;;7.20;2.60;;;;;;;11.98;51.63;98718.70;232407;201;137323;-61
2023/12/29 15:22:43;;;;;;;7.60;2.60;;;;;;;11.94;51.68;98729.48;231487;197;151274;-61
2023/12/29 15:27:46;;;;;;;5.00;3.20;;;;;;;11.89;51.79;98728.39;232295;204;137534;-61
2023/12/29 15:32:49;;;;;;;4.40;3.00;;;;;;;11.81;51.99;98731.09;231872;201;137326;-61
2023/12/29 15:37:55;;;;;;;9.10;3.40;;;;;;;11.78;52.00;98728.98;232240;200;153220;-61
2023/12/29 15:42:58;;;;;;;5.90;3.70;;;;;;;11.77;52.07;98723.35;232168;204;136731;-61
2023/12/29 15:48:02;;;;;;;7.40;3.40;;;;;;;11.78;52.01;98727.23;232408;197;137993;-61
2023/12/29 15:53:06;;;;;;;8.40;3.50;;;;;;;11.79;51.95;98729.05;232285;204;151619;-61
2023/12/29 15:58:10;;;;;;;7.90;3.60;;;;;;;11.77;52.05;98724.59;232155;198;137058;-61
2023/12/29 16:03:13;;;;;;;8.10;4.00;;;;;;;11.74;52.09;98721.43;232244;200;137431;-62
2023/12/29 16:08:19;;;;;;;8.20;4.20;;;;;;;11.73;52.08;98722.02;231909;196;152547;-62
2023/12/29 16:13:22;;;;;;;13.30;4.30;;;;;;;11.71;52.14;98717.05;231645;204;137347;-62
2023/12/29 16:18:26;;;;;;;304.50;172.30;;;;;;;11.68;51.98;98713.71;232197;196;136997;-61
2023/12/29 16:23:29;;;;;;;15.60;7.00;;;;;;;11.73;52.12;98714.09;232335;196;152566;-61
2023/12/29 16:28:33;;;;;;;7.00;4.30;;;;;;;11.70;51.72;98717.70;232120;204;137715;-61
2023/12/29 16:33:37;;;;;;;10.00;4.30;;;;;;;11.65;51.73;98714.46;232072;198;138551;-61
2023/12/29 16:38:49;;;;;;;10.20;5.20;;;;;;;11.57;51.90;98708.80;232201;204;152397;-61
2023/12/29 16:43:53;;;;;;;9.00;4.80;;;;;;;11.50;52.16;98711.23;232008;204;140211;-62
2023/12/29 16:48:56;;;;;;;9.60;5.40;;;;;;;11.47;52.33;98710.77;232134;204;136769;-62
2023/12/29 16:53:59;;;;;;;13.20;5.80;;;;;;;11.41;52.36;98706.96;232280;201;151303;-63
2023/12/29 16:59:05;;;;;;;12.50;5.80;;;;;;;11.31;52.66;98712.81;232159;201;136578;-64
2023/12/29 17:04:18;;;;;;;12.10;6.10;;;;;;;11.24;52.90;98708.33;231811;200;138158;-64
2023/12/29 17:09:27;;;;;;;13.90;6.40;;;;;;;11.18;53.21;98702.55;231899;197;152041;-63
2023/12/29 17:14:38;;;;;;;11.60;5.60;;;;;;;11.12;53.45;98698.14;231946;204;137301;-61
2023/12/29 17:19:41;;;;;;;10.10;6.10;;;;;;;11.10;53.50;98692.55;232182;203;138995;-62
2023/12/29 17:24:46;;;;;;;10.20;6.20;;;;;;;11.09;53.64;98686.79;232189;204;151533;-61
2023/12/29 17:29:49;;;;;;;11.00;5.90;;;;;;;11.07;53.92;98690.84;232417;196;140322;-61
2023/12/29 17:34:52;;;;;;;11.00;6.00;;;;;;;11.03;54.03;98688.80;232196;197;136614;-61
2023/12/29 17:39:56;;;;;;;10.10;5.70;;;;;;;11.06;54.08;98689.84;232116;196;152450;-60
2023/12/29 17:44:59;;;;;;;11.30;6.10;;;;;;;11.09;54.06;98685.19;232101;204;136763;-62
2023/12/29 17:50:03;;;;;;;10.30;5.90;;;;;;;11.07;54.11;98675.61;232081;201;137063;-61
2023/12/29 17:55:07;;;;;;;7.60;5.00;;;;;;;11.05;54.28;98675.57;232310;204;151315;-63
2023/12/29 18:00:11;;;;;;;9.70;4.90;;;;;;;11.07;54.30;98675.55;232293;198;137484;-62
2023/12/29 18:05:14;;;;;;;8.70;4.40;;;;;;;11.09;54.31;98685.19;232189;200;136378;-63
2023/12/29 18:10:18;;;;;;;8.00;4.70;;;;;;;11.12;54.34;98690.15;232264;200;151700;-62
2023/12/29 18:15:21;;;;;;;8.00;4.50;;;;;;;11.18;54.35;98692.03;232335;200;136559;-63
2023/12/29 18:20:25;;;;;;;8.50;4.40;;;;;;;11.24;54.42;98698.20;232169;204;137009;-61
2023/12/29 18:25:30;;;;;;;7.40;4.20;;;;;;;11.29;54.41;98701.41;232201;198;151580;-61
2023/12/29 18:30:33;;;;;;;9.40;4.20;;;;;;;11.33;54.49;98701.98;232174;200;136790;-61
2023/12/29 18:35:56;;;;;;;7.50;4.20;;;;;;;11.36;54.54;98698.02;232272;197;138676;-64
2023/12/29 18:41:40;;;;;;;6.90;4.10;;;;;;;11.36;54.56;98695.90;232258;204;153542;-63
2023/12/29 18:47:15;;;;;;;7.70;4.40;;;;;;;11.36;54.63;98696.59;231958;197;137412;-64
2023/12/29 18:52:27;;;;;;;6.20;4.10;;;;;;;11.35;54.76;98692.81;231595;203;136714;-62
2023/12/29 18:57:30;;;;;;;7.70;4.00;;;;;;;11.33;54.74;98695.94;231712;205;152056;-61
2023/12/29 19:02:34;;;;;;;6.90;3.70;;;;;;;11.29;54.83;98695.17;231551;205;136259;-62
2023/12/29 19:07:37;;;;;;;14.20;9.10;;;;;;;11.30;54.91;98693.50;231702;197;136514;-62
2023/12/29 19:12:40;;;;;;;10.20;6.00;;;;;;;11.35;55.09;98688.14;231938;200;151312;-61
2023/12/29 19:17:44;;;;;;;8.50;4.70;;;;;;;11.39;54.85;98687.50;231948;198;137596;-64
2023/12/29 19:22:47;;;;;;;6.50;4.30;;;;;;;11.40;54.74;98689.95;232071;204;137498;-62
2023/12/29 19:27:50;;;;;;;6.70;4.10;;;;;;;11.40;54.75;98691.43;231719;201;151489;-66
2023/12/29 19:32:54;;;;;;;7.70;4.40;;;;;;;11.39;54.77;98692.02;231916;198;136853;-63
2023/12/29 19:37:58;;;;;;;210.80;158.00;;;;;;;11.40;54.89;98696.53;231896;198;137288;-58
2023/12/29 19:43:01;;;;;;;20.00;13.50;;;;;;;11.53;54.96;98699.00;231571;201;151491;-56
2023/12/29 19:48:06;;;;;;;8.10;5.80;;;;;;;11.56;54.46;98699.11;232038;204;138620;-58
2023/12/29 19:53:09;;;;;;;6.30;4.60;;;;;;;11.52;54.33;98696.17;232075;204;140219;-57
2023/12/29 19:58:13;;;;;;;7.70;4.70;;;;;;;11.52;54.36;98700.11;232017;201;152644;-62
2023/12/29 20:03:16;;;;;;;8.40;5.00;;;;;;;11.54;54.25;98697.34;231990;204;138598;-61
2023/12/29 20:08:21;;;;;;;8.40;4.90;;;;;;;11.54;54.29;98698.66;231955;202;139355;-59
2023/12/29 20:13:24;;;;;;;83.40;56.50;;;;;;;11.53;54.17;98692.05;232036;201;151520;-56
2023/12/29 20:18:27;;;;;;;12.00;7.00;;;;;;;11.54;54.58;98694.06;232226;198;137140;-59
2023/12/29 20:23:31;;;;;;;7.50;5.00;;;;;;;11.55;54.24;98694.92;232143;201;137424;-59
2023/12/29 20:28:34;;;;;;;140.60;89.20;;;;;;;11.57;54.20;98693.86;232083;197;151338;-58
2023/12/29 20:33:37;;;;;;;12.80;7.20;;;;;;;11.68;54.10;98690.45;231785;198;138483;-56
2023/12/29 20:38:45;;;;;;;10.00;5.60;;;;;;;11.69;53.74;98692.88;232026;204;137916;-58
2023/12/29 20:43:50;;;;;;;10.00;5.20;;;;;;;11.65;53.77;98695.81;232038;201;151959;-58
2023/12/29 20:48:54;;;;;;;7.40;5.30;;;;;;;11.67;53.74;98692.34;231444;197;139521;-57
2023/12/29 20:53:58;;;;;;;10.30;5.20;;;;;;;11.66;53.73;98694.48;231147;205;140332;-55
2023/12/29 20:59:01;;;;;;;8.00;4.80;;;;;;;11.66;53.73;98688.60;231872;200;152156;-58
2023/12/29 21:04:04;;;;;;;57.50;42.60;;;;;;;11.64;53.66;98682.41;232136;201;137549;-58
2023/12/29 21:09:10;;;;;;;10.00;5.60;;;;;;;11.67;53.95;98679.70;231948;197;137277;-56
2023/12/29 21:14:13;;;;;;;12.70;5.40;;;;;;;11.71;53.80;98676.73;232058;198;152664;-58
2023/12/29 21:19:16;;;;;;;8.90;5.00;;;;;;;11.71;53.64;98685.63;232151;198;137704;-58
2023/12/29 21:24:20;;;;;;;8.20;5.20;;;;;;;11.67;53.71;98687.34;232276;200;137179;-55
2023/12/29 21:29:23;;;;;;;11.90;5.80;;;;;;;11.64;53.87;98687.87;232104;204;153121;-57
2023/12/29 21:34:26;;;;;;;10.50;5.30;;;;;;;11.65;53.94;98691.73;232092;201;137413;-56
2023/12/29 21:39:29;;;;;;;8.20;4.70;;;;;;;11.69;54.04;98694.26;232188;204;137416;-56
2023/12/29 21:44:33;;;;;;;8.20;4.30;;;;;;;11.69;54.08;98692.50;231756;198;152723;-58
2023/12/29 21:49:39;;;;;;;6.70;4.40;;;;;;;11.71;54.08;98695.70;231907;201;137061;-57
2023/12/29 21:54:43;;;;;;;6.70;3.80;;;;;;;11.74;54.12;98698.02;232091;197;137727;-58
2023/12/29 21:59:46;;;;;;;6.70;4.00;;;;;;;11.78;54.06;98690.93;231562;198;151253;-58
2023/12/29 22:04:50;;;;;;;8.20;4.00;;;;;;;11.82;54.05;98683.41;231868;201;137316;-58
2023/12/29 22:09:53;;;;;;;6.80;3.90;;;;;;;11.79;53.88;98679.48;231937;204;137227;-58
2023/12/29 22:14:56;;;;;;;9.70;4.30;;;;;;;11.75;54.07;98680.13;232231;204;152268;-57
2023/12/29 22:20:00;;;;;;;8.10;4.50;;;;;;;11.72;54.10;98674.34;232206;204;136699;-58
2023/12/29 22:25:04;;;;;;;6.00;3.80;;;;;;;11.68;54.07;98671.42;232122;204;137367;-57
2023/12/29 22:30:11;;;;;;;6.10;3.80;;;;;;;11.64;54.00;98660.35;232264;204;155593;-56
2023/12/29 22:35:14;;;;;;;7.70;4.30;;;;;;;11.55;54.10;98657.09;232140;197;136613;-57
2023/12/29 22:40:18;;;;;;;5.80;4.10;;;;;;;11.49;54.17;98652.89;231929;204;139864;-55
2023/12/29 22:45:22;;;;;;;7.10;3.60;;;;;;;11.44;54.20;98646.48;232099;204;153224;-58
2023/12/29 22:50:25;;;;;;;9.00;3.90;;;;;;;11.40;54.35;98639.50;232074;204;137137;-57
2023/12/29 22:55:28;;;;;;;8.30;4.70;;;;;;;11.26;54.52;98639.30;232013;204;137026;-57
2023/12/29 23:00:36;;;;;;;10.00;5.80;;;;;;;11.09;55.05;98635.84;232164;201;151222;-57
2023/12/29 23:05:39;;;;;;;10.80;6.20;;;;;;;10.93;55.44;98637.64;232190;201;137316;-56
2023/12/29 23:10:43;;;;;;;10.80;6.70;;;;;;;10.79;55.90;98640.98;232128;197;138218;-58
2023/12/29 23:15:49;;;;;;;9.30;6.20;;;;;;;10.68;56.15;98636.41;231997;204;151070;-57
2023/12/29 23:20:52;;;;;;;;;;;;;;;10.51;56.45;98640.64;232197;201;136588;-58
2023/12/29 23:25:56;;;;;;;10.90;6.20;;;;;;;10.32;56.89;98637.77;231021;205;137074;-57
2023/12/29 23:30:59;;;;;;;9.70;6.30;;;;;;;10.11;57.31;98629.75;231986;199;151993;-56